San Diego/Montgomery Field, California
Current Conditions -  °F | °C
As of 2:53 AM on Friday 24 Oct 2014 (Local Time) from KMYF Reporting Station
Clear Clear  
Wind Chill: 63°   Ceiling: Unl
Heat Index: 63°   Visibility: 10mi
Dew Point: 48°   Wind: 3mph
Humidity: 58%   Direction: 10°N
Pressure: 29.96"   Gusts: NA
Location:  32.82°N, 117.13°W
Report Text: KMYF 240953Z AUTO 01003KT 10SM CLR 17/09 A2996 RMK AO2 SLP141 T01720089 TSNO
Loading
Personal Weather Stations






























Interactive Weather Map
Tropical Storm Tracking
New forecast layout! Learn more

10-Day Weather Forecast

Advertisements
Track Severe Weather on mobile